Terminal Aerodrome Forecast
Issued by NWS Duluth, MN

Home | Current Version | Previous Version | Text Only | Print | Product List | Glossary On
Versions: 1 2 3 4 5 6 7 8 9 10 11 12 13 14 15 16 17 18 19 20 21 22 23 24 25 26 27 28 29 30 31 32 33 34 35
000
FTUS43 KDLH 302100 AAC
TAFINL
TAF AMD
KINL 302151Z 3022/0118 12010KT P6SM SCT080
     FM010400 14010KT P6SM SCT020 OVC050
      TEMPO 0104/0108 BKN025
     FM010800 13010KT P6SM VCSH OVC015
     FM011400 17011G17KT P6SM VCSH OVC015=

USA.gov is the U.S. government's official web portal to all federal, state and local government web resources and services.